createdAt,value
2018-12-16T00:00:41.682Z,19.90
2018-12-16T00:01:41.720Z,19.80
2018-12-16T00:02:41.612Z,18.20
2018-12-16T00:03:41.655Z,18.80
2018-12-16T00:04:43.844Z,18.90
2018-12-16T00:05:41.642Z,18.00
2018-12-16T00:06:41.769Z,18.20
2018-12-16T00:07:41.806Z,18.30
2018-12-16T00:08:41.823Z,18.90
2018-12-16T00:09:41.711Z,18.70
2018-12-16T00:10:41.736Z,20.20
2018-12-16T00:11:41.975Z,18.90
2018-12-16T00:12:41.891Z,19.60
2018-12-16T00:13:41.783Z,21.20
2018-12-16T00:14:41.812Z,21.10
2018-12-16T00:15:41.817Z,19.90
2018-12-16T00:16:42.004Z,22.20
2018-12-16T00:17:41.867Z,22.00
2018-12-16T00:18:41.924Z,21.60
2018-12-16T00:19:41.904Z,21.20
2018-12-16T00:20:41.905Z,21.40
2018-12-16T00:21:41.988Z,21.70
2018-12-16T00:22:41.956Z,21.60
2018-12-16T00:23:41.970Z,22.10
2018-12-16T00:24:41.980Z,25.60
2018-12-16T00:25:42.020Z,26.70
2018-12-16T00:26:42.124Z,27.00
2018-12-16T00:27:42.022Z,28.50
2018-12-16T00:28:42.059Z,24.60
2018-12-16T00:29:42.071Z,22.50
2018-12-16T00:30:42.086Z,22.20
2018-12-16T00:31:42.248Z,21.90
2018-12-16T00:32:42.147Z,22.70
2018-12-16T00:33:42.195Z,23.80
2018-12-16T00:34:42.149Z,24.10
2018-12-16T00:35:42.167Z,24.30
2018-12-16T00:36:42.289Z,23.60
2018-12-16T00:37:42.331Z,24.70
2018-12-16T00:38:42.352Z,24.30
2018-12-16T00:39:42.291Z,22.80
2018-12-16T00:40:42.295Z,22.30
2018-12-16T00:41:42.434Z,23.50
2018-12-16T00:42:42.312Z,24.20
2018-12-16T00:43:42.325Z,24.80
2018-12-16T00:44:42.379Z,24.70
2018-12-16T00:45:42.356Z,23.70
2018-12-16T00:46:42.592Z,24.50
2018-12-16T00:47:42.509Z,27.40
2018-12-16T00:48:42.526Z,25.90
2018-12-16T00:49:42.546Z,25.30
2018-12-16T00:50:42.440Z,26.60
2018-12-16T00:51:42.565Z,27.10
2018-12-16T00:52:42.466Z,26.40
2018-12-16T00:53:42.497Z,27.10
2018-12-16T00:54:42.516Z,29.10
2018-12-16T00:55:42.574Z,30.50
2018-12-16T00:56:42.699Z,28.90
2018-12-16T00:57:42.572Z,27.40
2018-12-16T00:58:42.588Z,27.60
2018-12-16T00:59:42.590Z,28.60
2018-12-16T01:00:42.626Z,27.90
2018-12-16T01:01:42.728Z,29.10
2018-12-16T01:02:42.713Z,29.40
2018-12-16T01:03:42.792Z,28.70
2018-12-16T01:04:42.691Z,26.90
2018-12-16T01:05:42.827Z,26.10
2018-12-16T01:06:42.945Z,25.60
2018-12-16T01:07:42.746Z,27.70
2018-12-16T01:08:42.754Z,27.60
2018-12-16T01:09:42.786Z,27.70
2018-12-16T01:10:42.920Z,27.50
2018-12-16T01:11:42.923Z,27.90
2018-12-16T01:12:42.820Z,29.30
2018-12-16T01:13:42.969Z,29.40
2018-12-16T01:14:42.874Z,29.80
2018-12-16T01:15:42.871Z,30.20
2018-12-16T01:16:43.055Z,29.80
2018-12-16T01:17:42.961Z,30.10
2018-12-16T01:18:42.952Z,30.00
2018-12-16T01:19:42.949Z,30.90
2018-12-16T01:20:42.973Z,28.90
2018-12-16T01:21:43.083Z,29.20
2018-12-16T01:22:43.641Z,31.60
2018-12-16T01:23:43.032Z,31.70
2018-12-16T01:24:43.036Z,30.90
2018-12-16T01:25:43.055Z,32.40
2018-12-16T01:26:43.183Z,33.40
2018-12-16T01:27:43.104Z,33.90
2018-12-16T01:28:43.117Z,35.70
2018-12-16T01:29:43.116Z,35.80
2018-12-16T01:30:43.146Z,33.70
2018-12-16T01:31:43.269Z,34.20
2018-12-16T01:32:43.175Z,35.50
2018-12-16T01:33:43.202Z,34.40
2018-12-16T01:34:43.334Z,33.70
2018-12-16T01:35:43.231Z,34.70
2018-12-16T01:36:43.468Z,34.00
2018-12-16T01:37:43.267Z,33.20
2018-12-16T01:38:43.284Z,34.90
2018-12-16T01:39:43.297Z,33.50
2018-12-16T01:40:43.329Z,33.30
2018-12-16T01:41:43.495Z,34.00
2018-12-16T01:42:43.471Z,34.60
2018-12-16T01:43:43.375Z,34.20
2018-12-16T01:44:43.376Z,35.90
2018-12-16T01:45:43.428Z,34.00
2018-12-16T01:46:43.589Z,34.80
2018-12-16T01:47:43.435Z,34.20
2018-12-16T01:48:43.463Z,34.50
2018-12-16T01:49:43.471Z,34.70
2018-12-16T01:50:43.499Z,33.90
2018-12-16T01:51:43.659Z,32.70
2018-12-16T01:52:49.950Z,35.40
2018-12-16T01:53:43.661Z,37.90
2018-12-16T01:54:43.568Z,37.20
2018-12-16T01:55:43.588Z,35.80
2018-12-16T01:56:43.711Z,40.00
2018-12-16T01:57:43.630Z,43.60
2018-12-16T01:58:43.625Z,42.10
2018-12-16T01:59:43.769Z,43.10
2018-12-16T02:00:43.659Z,48.20
2018-12-16T02:01:43.953Z,52.00
2018-12-16T02:02:43.819Z,60.60
2018-12-16T02:03:43.838Z,81.30
2018-12-16T02:04:43.731Z,79.50
2018-12-16T02:05:43.751Z,74.40
2018-12-16T02:06:43.819Z,68.50
2018-12-16T02:07:43.782Z,77.40
2018-12-16T02:08:43.813Z,77.40
2018-12-16T02:09:43.818Z,82.30
2018-12-16T02:10:43.979Z,79.90
2018-12-16T02:11:43.844Z,81.00
2018-12-16T02:12:43.881Z,74.20
2018-12-16T02:13:44.051Z,78.20
2018-12-16T02:14:43.917Z,80.00
2018-12-16T02:15:44.032Z,74.60
2018-12-16T02:16:43.953Z,83.20
2018-12-16T02:17:44.078Z,80.90
2018-12-16T02:18:44.016Z,83.10
2018-12-16T02:19:44.000Z,75.90
2018-12-16T02:20:44.109Z,72.60
2018-12-16T02:21:44.025Z,70.60
2018-12-16T02:22:44.164Z,68.80
2018-12-16T02:23:44.061Z,62.70
2018-12-16T02:24:44.073Z,58.50
2018-12-16T02:25:44.314Z,58.40
2018-12-16T02:26:44.102Z,57.40
2018-12-16T02:27:44.147Z,56.50
2018-12-16T02:28:44.138Z,56.80
2018-12-16T02:29:44.167Z,54.90
2018-12-16T02:30:44.224Z,53.90
2018-12-16T02:31:44.373Z,53.70
2018-12-16T02:32:44.217Z,52.00
2018-12-16T02:33:44.391Z,50.30
2018-12-16T02:34:44.256Z,50.90
2018-12-16T02:35:44.390Z,49.70
2018-12-16T02:36:44.304Z,49.50
2018-12-16T02:37:44.299Z,51.10
2018-12-16T02:38:44.425Z,52.40
2018-12-16T02:39:44.454Z,52.60
2018-12-16T02:40:44.356Z,51.90
2018-12-16T02:41:44.430Z,49.40
2018-12-16T02:42:44.399Z,49.10
2018-12-16T02:43:44.510Z,50.00
2018-12-16T02:44:44.466Z,50.50
2018-12-16T02:45:44.456Z,46.10
2018-12-16T02:46:44.447Z,46.70
2018-12-16T02:47:44.594Z,46.20
2018-12-16T02:48:44.712Z,44.90
2018-12-16T02:49:44.499Z,46.20
2018-12-16T02:50:44.525Z,44.10
2018-12-16T02:51:44.528Z,45.20
2018-12-16T02:52:44.683Z,45.20
2018-12-16T02:53:44.668Z,44.70
2018-12-16T02:54:44.598Z,46.20
2018-12-16T02:55:44.620Z,45.10
2018-12-16T02:56:44.622Z,45.20
2018-12-16T02:57:44.656Z,47.20
2018-12-16T02:58:44.721Z,49.10
2018-12-16T02:59:44.687Z,45.10
2018-12-16T03:00:44.747Z,46.20
2018-12-16T03:01:44.729Z,45.60
2018-12-16T03:02:44.731Z,46.10
2018-12-16T03:03:44.862Z,45.40
2018-12-16T03:04:44.886Z,46.00
2018-12-16T03:05:44.786Z,45.30
2018-12-16T03:06:44.803Z,44.80
2018-12-16T03:07:44.818Z,45.50
2018-12-16T03:08:45.027Z,48.20
2018-12-16T03:09:44.972Z,53.60
2018-12-16T03:10:44.877Z,50.40
2018-12-16T03:11:44.886Z,47.90
2018-12-16T03:12:44.926Z,47.70
2018-12-16T03:13:45.022Z,49.70
2018-12-16T03:14:44.950Z,50.20
2018-12-16T03:15:44.969Z,51.60
2018-12-16T03:16:44.981Z,49.40
2018-12-16T03:17:45.111Z,48.30
2018-12-16T03:18:45.108Z,47.60
2018-12-16T03:19:45.030Z,44.00
2018-12-16T03:20:45.163Z,41.90
2018-12-16T03:21:45.064Z,39.80
2018-12-16T03:22:45.091Z,37.40
2018-12-16T03:23:45.315Z,39.00
2018-12-16T03:24:45.120Z,36.40
2018-12-16T03:25:45.119Z,36.00
2018-12-16T03:26:45.164Z,38.10
2018-12-16T03:27:45.177Z,36.20
2018-12-16T03:28:45.277Z,36.40
2018-12-16T03:29:45.195Z,35.80
2018-12-16T03:30:45.226Z,37.20
2018-12-16T03:31:45.235Z,36.30
2018-12-16T03:32:45.271Z,37.30
2018-12-16T03:33:45.363Z,36.50
2018-12-16T03:34:45.403Z,35.60
2018-12-16T03:35:45.310Z,35.40
2018-12-16T03:36:45.435Z,37.00
2018-12-16T03:37:45.325Z,37.10
2018-12-16T03:38:45.567Z,35.90
2018-12-16T03:39:45.496Z,31.40
2018-12-16T03:40:45.390Z,28.70
2018-12-16T03:41:45.398Z,28.10
2018-12-16T03:42:45.428Z,26.30
2018-12-16T03:43:45.550Z,27.60
2018-12-16T03:44:45.463Z,24.70
2018-12-16T03:45:45.473Z,24.70
2018-12-16T03:46:45.665Z,25.20
2018-12-16T03:47:45.509Z,26.20
2018-12-16T03:48:45.791Z,24.30
2018-12-16T03:49:45.540Z,24.40
2018-12-16T03:50:45.567Z,24.80
2018-12-16T03:51:45.565Z,24.90
2018-12-16T03:52:45.639Z,24.60
2018-12-16T03:53:45.716Z,25.90
2018-12-16T03:54:45.634Z,23.50
2018-12-16T03:55:45.648Z,23.10
2018-12-16T03:56:45.651Z,20.60
2018-12-16T03:57:45.683Z,21.50
2018-12-16T03:58:45.742Z,20.40
2018-12-16T03:59:45.707Z,20.80
2018-12-16T04:00:45.732Z,20.60
2018-12-16T04:01:45.729Z,21.40
2018-12-16T04:02:45.879Z,21.10
2018-12-16T04:03:45.991Z,22.70
2018-12-16T04:04:45.777Z,22.90
2018-12-16T04:05:45.927Z,23.20
2018-12-16T04:06:45.834Z,24.80
2018-12-16T04:07:45.839Z,25.40
2018-12-16T04:08:45.919Z,24.60
2018-12-16T04:09:45.877Z,27.00
2018-12-16T04:10:45.890Z,26.70
2018-12-16T04:11:45.925Z,27.30
2018-12-16T04:12:45.912Z,29.00
2018-12-16T04:13:46.051Z,30.40
2018-12-16T04:14:45.954Z,32.20
2018-12-16T04:15:46.090Z,33.50
2018-12-16T04:16:45.978Z,33.90
2018-12-16T04:17:45.991Z,35.60
2018-12-16T04:18:46.198Z,37.80
2018-12-16T04:19:46.048Z,37.40
2018-12-16T04:20:46.045Z,40.90
2018-12-16T04:21:46.067Z,41.50
2018-12-16T04:22:46.087Z,43.10
2018-12-16T04:23:46.093Z,47.70
2018-12-16T04:24:46.208Z,47.20
2018-12-16T04:25:46.137Z,47.60
2018-12-16T04:26:46.271Z,44.70
2018-12-16T04:27:46.287Z,43.30
2018-12-16T04:28:46.194Z,43.60
2018-12-16T04:29:46.341Z,44.30
2018-12-16T04:30:46.257Z,41.10
2018-12-16T04:31:46.238Z,43.40
2018-12-16T04:32:46.292Z,42.30
2018-12-16T04:33:46.383Z,41.60
2018-12-16T04:34:46.389Z,41.00
2018-12-16T04:35:46.297Z,39.60
2018-12-16T04:36:46.320Z,38.70
2018-12-16T04:37:46.345Z,39.90
2018-12-16T04:38:46.334Z,40.50
2018-12-16T04:39:46.459Z,40.40
2018-12-16T04:40:46.395Z,39.00
2018-12-16T04:41:46.390Z,37.60
2018-12-16T04:42:46.421Z,39.60
2018-12-16T04:43:46.431Z,36.90
2018-12-16T04:44:46.591Z,37.60
2018-12-16T04:45:46.453Z,36.90
2018-12-16T04:46:46.483Z,37.80
2018-12-16T04:47:46.492Z,39.10
2018-12-16T04:48:46.514Z,38.70
2018-12-16T04:49:46.601Z,40.10
2018-12-16T04:50:46.550Z,39.10
2018-12-16T04:51:46.552Z,40.40
2018-12-16T04:52:46.580Z,39.90
2018-12-16T04:53:46.737Z,41.30
2018-12-16T04:54:46.704Z,40.10
2018-12-16T04:55:46.646Z,39.80
2018-12-16T04:56:46.635Z,39.70
2018-12-16T04:57:46.662Z,40.00
2018-12-16T04:58:46.681Z,38.00
2018-12-16T04:59:46.912Z,41.60
2018-12-16T05:00:46.714Z,39.90
2018-12-16T05:01:46.839Z,37.00
2018-12-16T05:02:46.752Z,38.90
2018-12-16T05:03:46.757Z,37.10
2018-12-16T05:04:46.859Z,37.10
2018-12-16T05:05:46.820Z,36.40
2018-12-16T05:06:46.814Z,37.00
2018-12-16T05:07:46.839Z,37.20
2018-12-16T05:08:46.821Z,37.20
2018-12-16T05:09:47.119Z,35.90
2018-12-16T05:10:46.863Z,36.40
2018-12-16T05:11:47.002Z,36.80
2018-12-16T05:12:46.912Z,36.40
2018-12-16T05:13:46.910Z,35.40
2018-12-16T05:14:46.967Z,33.00
2018-12-16T05:15:47.060Z,31.60
2018-12-16T05:16:46.986Z,32.10
2018-12-16T05:17:47.100Z,33.70
2018-12-16T05:18:46.992Z,33.40
2018-12-16T05:19:47.005Z,33.60
2018-12-16T05:20:47.173Z,33.30
2018-12-16T05:21:47.043Z,33.70
2018-12-16T05:22:47.067Z,34.60
2018-12-16T05:23:47.085Z,35.20
2018-12-16T05:24:47.103Z,34.00
2018-12-16T05:25:47.220Z,32.90
2018-12-16T05:26:47.131Z,32.00
2018-12-16T05:27:47.264Z,32.50
2018-12-16T05:28:47.155Z,33.90
2018-12-16T05:29:47.172Z,32.60
2018-12-16T05:30:47.329Z,33.30
2018-12-16T05:31:47.202Z,33.80
2018-12-16T05:32:47.223Z,33.60
2018-12-16T05:33:47.361Z,32.30
2018-12-16T05:34:47.277Z,30.90
2018-12-16T05:35:47.385Z,32.10
2018-12-16T05:36:47.355Z,30.90
2018-12-16T05:37:47.298Z,31.00
2018-12-16T05:38:47.364Z,31.60
2018-12-16T05:39:47.384Z,29.90
2018-12-16T05:40:47.418Z,30.60
2018-12-16T05:41:47.387Z,29.80
2018-12-16T05:42:47.394Z,29.90
2018-12-16T05:43:47.553Z,29.80
2018-12-16T05:44:47.410Z,30.20
2018-12-16T05:45:48.121Z,30.20
2018-12-16T05:46:47.466Z,29.50
2018-12-16T05:47:47.489Z,29.50
2018-12-16T05:48:47.597Z,29.90
2018-12-16T05:49:47.508Z,29.10
2018-12-16T05:50:47.565Z,28.10
2018-12-16T05:51:47.587Z,27.60
2018-12-16T05:52:47.542Z,29.20
2018-12-16T05:53:48.748Z,27.40
2018-12-16T05:54:47.591Z,26.90
2018-12-16T05:55:47.723Z,27.10
2018-12-16T05:56:47.644Z,27.00
2018-12-16T05:57:47.623Z,26.10
2018-12-16T05:58:47.700Z,26.70
2018-12-16T05:59:47.687Z,26.80
2018-12-16T06:00:47.676Z,26.10
2018-12-16T06:01:47.704Z,24.60
2018-12-16T06:02:47.719Z,24.80
2018-12-16T06:03:47.843Z,24.70
2018-12-16T06:04:47.751Z,23.50
2018-12-16T06:05:47.882Z,24.20
2018-12-16T06:06:47.792Z,22.90
2018-12-16T06:07:47.815Z,23.30
2018-12-16T06:08:47.917Z,23.50
2018-12-16T06:09:47.950Z,23.60
2018-12-16T06:10:47.849Z,23.50
2018-12-16T06:11:47.861Z,23.40
2018-12-16T06:12:47.867Z,23.00
2018-12-16T06:14:47.926Z,22.00
2018-12-16T06:15:47.917Z,22.10
2018-12-16T06:16:47.949Z,20.40
2018-12-16T06:17:47.964Z,21.00
2018-12-16T06:18:48.012Z,21.00
2018-12-16T06:19:47.989Z,19.90
2018-12-16T06:20:48.132Z,19.80
2018-12-16T06:21:48.149Z,20.30
2018-12-16T06:22:48.055Z,20.10
2018-12-16T06:23:48.159Z,20.60
2018-12-16T06:24:48.195Z,20.20
2018-12-16T06:25:48.082Z,21.00
2018-12-16T06:26:48.107Z,20.90
2018-12-16T06:27:48.246Z,23.50
2018-12-16T06:28:48.197Z,21.40
2018-12-16T06:29:48.162Z,21.40
2018-12-16T06:30:48.292Z,21.10
2018-12-16T06:31:48.192Z,22.20
2018-12-16T06:32:48.327Z,23.10
2018-12-16T06:33:48.324Z,22.30
2018-12-16T06:34:48.242Z,23.30
2018-12-16T06:35:48.261Z,24.00
2018-12-16T06:36:48.307Z,22.90
2018-12-16T06:37:48.409Z,23.80
2018-12-16T06:38:48.411Z,23.30
2018-12-16T06:39:48.312Z,23.60
2018-12-16T06:40:48.342Z,23.60
2018-12-16T06:41:48.353Z,23.00
2018-12-16T06:42:48.375Z,24.20
2018-12-16T06:43:48.481Z,24.10
2018-12-16T06:44:48.397Z,23.30
2018-12-16T06:45:48.414Z,24.10
2018-12-16T06:46:48.419Z,24.70
2018-12-16T06:47:48.449Z,24.50
2018-12-16T06:48:48.558Z,23.40
2018-12-16T06:49:48.476Z,24.50
2018-12-16T06:50:48.496Z,24.90
2018-12-16T06:51:48.505Z,25.20
2018-12-16T06:52:48.651Z,24.60
2018-12-16T06:53:48.720Z,23.70
2018-12-16T06:54:48.571Z,25.10
2018-12-16T06:55:48.574Z,25.80
2018-12-16T06:56:48.755Z,24.10
2018-12-16T06:57:48.607Z,24.00
2018-12-16T06:58:48.623Z,25.20
2018-12-16T06:59:48.648Z,25.70
2018-12-16T07:00:48.659Z,25.60
2018-12-16T07:01:48.795Z,26.80
2018-12-16T07:02:48.695Z,26.50
2018-12-16T07:03:48.720Z,27.00
2018-12-16T07:04:48.721Z,26.50
2018-12-16T07:05:48.756Z,27.80
2018-12-16T07:06:48.801Z,29.10
2018-12-16T07:07:48.796Z,27.80
2018-12-16T07:08:48.834Z,29.20
2018-12-16T07:09:48.870Z,28.40
2018-12-16T07:10:48.825Z,28.50
2018-12-16T07:11:48.858Z,28.70
2018-12-16T07:12:48.864Z,29.40
2018-12-16T07:13:48.888Z,29.20
2018-12-16T07:14:48.934Z,29.90
2018-12-16T07:15:49.030Z,28.80
2018-12-16T07:16:49.037Z,28.10
2018-12-16T07:17:49.091Z,29.50
2018-12-16T07:18:49.071Z,28.20
2018-12-16T07:19:49.161Z,29.30
2018-12-16T07:20:48.991Z,29.70
2018-12-16T07:21:48.996Z,29.40
2018-12-16T07:22:49.022Z,27.60
2018-12-16T07:23:49.035Z,27.30
2018-12-16T07:24:49.196Z,27.20
2018-12-16T07:25:49.109Z,28.60
2018-12-16T07:26:49.231Z,28.00
2018-12-16T07:27:49.095Z,29.00
2018-12-16T07:28:49.108Z,29.20
2018-12-16T07:29:49.165Z,29.10
2018-12-16T07:30:49.262Z,29.60
2018-12-16T07:31:49.149Z,28.80
2018-12-16T07:32:49.293Z,29.30
2018-12-16T07:33:49.410Z,29.00
2018-12-16T07:34:49.198Z,27.90
2018-12-16T07:35:49.227Z,28.40
2018-12-16T07:36:49.242Z,29.00
2018-12-16T07:37:49.290Z,28.70
2018-12-16T07:38:49.328Z,28.90
2018-12-16T07:39:49.417Z,28.00
2018-12-16T07:40:49.323Z,26.80
2018-12-16T07:41:49.337Z,27.80
2018-12-16T07:42:49.478Z,27.50
2018-12-16T07:43:49.342Z,26.20
2018-12-16T07:44:49.480Z,25.80
2018-12-16T07:45:49.381Z,26.80
2018-12-16T07:46:49.523Z,27.50
2018-12-16T07:47:49.421Z,24.10
2018-12-16T07:48:49.429Z,23.80
2018-12-16T07:49:49.558Z,26.20
2018-12-16T07:50:49.469Z,25.30
2018-12-16T07:51:49.519Z,25.80
2018-12-16T07:52:49.553Z,25.10
2018-12-16T07:53:49.606Z,25.30
2018-12-16T07:54:49.664Z,25.60
2018-12-16T07:55:49.563Z,26.60
2018-12-16T07:56:49.569Z,25.60
2018-12-16T07:57:49.581Z,26.60
2018-12-16T07:58:49.612Z,27.00
2018-12-16T07:59:49.711Z,26.30
2018-12-16T08:00:49.643Z,27.90
2018-12-16T08:01:49.649Z,26.50
2018-12-16T08:02:49.662Z,27.00
2018-12-16T08:03:49.704Z,26.90
2018-12-16T08:04:53.112Z,27.00
2018-12-16T08:05:49.693Z,27.20
2018-12-16T08:06:49.714Z,27.80
2018-12-16T08:07:49.736Z,27.30
2018-12-16T08:08:49.740Z,26.30
2018-12-16T08:09:49.869Z,25.90
2018-12-16T08:10:49.789Z,26.60
2018-12-16T08:11:49.800Z,26.80
2018-12-16T08:12:49.814Z,24.60
2018-12-16T08:13:49.955Z,25.30
2018-12-16T08:14:49.950Z,25.20
2018-12-16T08:15:49.991Z,24.80
2018-12-16T08:16:49.924Z,26.10
2018-12-16T08:17:49.894Z,26.80
2018-12-16T08:18:49.912Z,25.50
2018-12-16T08:19:50.077Z,25.50
2018-12-16T08:20:49.991Z,27.20
2018-12-16T08:21:49.972Z,25.50
2018-12-16T08:22:49.975Z,26.90
2018-12-16T08:23:50.015Z,26.60
2018-12-16T08:24:50.134Z,27.00
2018-12-16T08:25:50.187Z,27.50
2018-12-16T08:26:50.053Z,27.70
2018-12-16T08:27:50.062Z,27.50
2018-12-16T08:28:50.085Z,27.30
2018-12-16T08:29:50.100Z,28.20
2018-12-16T08:30:50.228Z,28.60
2018-12-16T08:31:50.144Z,29.10
2018-12-16T08:32:50.159Z,28.10
2018-12-16T08:33:50.284Z,29.20
2018-12-16T08:34:50.163Z,28.20
2018-12-16T08:35:50.349Z,28.30
2018-12-16T08:36:50.226Z,27.40
2018-12-16T08:37:50.247Z,25.50
2018-12-16T08:38:50.244Z,26.90
2018-12-16T08:39:50.268Z,25.20
2018-12-16T08:40:50.369Z,25.30
2018-12-16T08:41:50.299Z,24.20
2018-12-16T08:42:50.322Z,25.60
2018-12-16T08:43:50.320Z,25.50
2018-12-16T08:44:50.351Z,26.40
2018-12-16T08:45:50.456Z,25.70
2018-12-16T08:46:50.377Z,26.20
2018-12-16T08:47:50.515Z,26.00
2018-12-16T08:48:50.426Z,27.00
2018-12-16T08:49:50.425Z,27.70
2018-12-16T08:50:50.487Z,27.80
2018-12-16T08:51:50.578Z,29.10
2018-12-16T08:52:50.471Z,27.90
2018-12-16T08:53:50.576Z,26.40
2018-12-16T08:54:50.499Z,27.80
2018-12-16T08:55:50.572Z,26.30
2018-12-16T08:56:50.571Z,24.50
2018-12-16T08:57:50.680Z,23.90
2018-12-16T08:58:50.572Z,25.40
2018-12-16T08:59:50.601Z,24.60
2018-12-16T09:00:50.670Z,26.10
2018-12-16T09:01:50.618Z,24.60
2018-12-16T09:02:50.761Z,25.70
2018-12-16T09:03:50.660Z,24.50
2018-12-16T09:04:50.763Z,25.70
2018-12-16T09:05:50.693Z,25.10
2018-12-16T09:06:50.700Z,23.40
2018-12-16T09:07:50.733Z,23.60
2018-12-16T09:08:50.753Z,22.90
2018-12-16T09:09:50.871Z,21.80
2018-12-16T09:10:50.793Z,19.90
2018-12-16T09:11:50.802Z,22.40
2018-12-16T09:12:50.809Z,20.80
2018-12-16T09:13:50.834Z,20.40
2018-12-16T09:14:50.969Z,20.80
2018-12-16T09:15:50.862Z,20.80
2018-12-16T09:16:50.892Z,18.80
2018-12-16T09:17:50.899Z,19.00
2018-12-16T09:18:50.930Z,18.10
2018-12-16T09:19:51.055Z,17.90
2018-12-16T09:20:50.955Z,19.80
2018-12-16T09:21:50.992Z,19.20
2018-12-16T09:22:51.001Z,18.80
2018-12-16T09:23:51.008Z,18.40
2018-12-16T09:24:51.188Z,18.20
2018-12-16T09:25:51.179Z,19.40
2018-12-16T09:26:51.075Z,17.10
2018-12-16T09:27:51.089Z,16.90
2018-12-16T09:28:51.230Z,17.10
2018-12-16T09:29:51.276Z,19.20
2018-12-16T09:30:57.818Z,19.90
2018-12-16T09:31:51.285Z,20.00
2018-12-16T09:32:51.174Z,21.60
2018-12-16T09:33:51.202Z,20.20
2018-12-16T09:34:51.366Z,19.20
2018-12-16T09:35:51.362Z,20.60
2018-12-16T09:36:51.384Z,19.60
2018-12-16T09:37:51.300Z,18.90
2018-12-16T09:38:51.307Z,20.30
2018-12-16T09:39:51.362Z,20.00
2018-12-16T09:40:51.346Z,20.30
2018-12-16T09:41:51.347Z,18.30
2018-12-16T09:42:51.366Z,20.90
2018-12-16T09:43:51.400Z,21.50
2018-12-16T09:44:51.507Z,22.90
2018-12-16T09:45:51.429Z,23.00
2018-12-16T09:46:51.446Z,21.90
2018-12-16T09:47:51.465Z,20.30
2018-12-16T09:48:51.493Z,19.20
2018-12-16T09:49:51.733Z,19.70
2018-12-16T09:50:51.541Z,20.10
2018-12-16T09:51:51.559Z,18.60
2018-12-16T09:52:51.690Z,19.60
2018-12-16T09:53:51.600Z,19.00
2018-12-16T09:54:51.715Z,19.00
2018-12-16T09:55:51.752Z,19.00
2018-12-16T09:56:51.671Z,20.40
2018-12-16T09:57:51.681Z,19.40
2018-12-16T09:58:51.811Z,18.50
2018-12-16T09:59:51.782Z,18.10
2018-12-16T10:00:51.727Z,18.00
2018-12-16T10:01:51.770Z,18.00
2018-12-16T10:02:51.778Z,19.10
2018-12-16T10:03:51.782Z,18.30
2018-12-16T10:04:51.977Z,16.90
2018-12-16T10:05:51.823Z,15.80
2018-12-16T10:06:51.860Z,15.10
2018-12-16T10:07:51.869Z,15.90
2018-12-16T10:08:51.905Z,14.80
2018-12-16T10:09:52.004Z,15.00
2018-12-16T10:10:51.929Z,15.50
2018-12-16T10:11:51.954Z,15.70
2018-12-16T10:12:51.992Z,18.90
2018-12-16T10:13:52.014Z,15.40
2018-12-16T10:14:52.129Z,17.40
2018-12-16T10:15:52.053Z,17.20
2018-12-16T10:16:52.070Z,17.00
2018-12-16T10:17:52.102Z,15.10
2018-12-16T10:18:52.119Z,15.50
2018-12-16T10:19:52.277Z,16.30
2018-12-16T10:20:52.217Z,16.00
2018-12-16T10:21:52.303Z,15.40
2018-12-16T10:22:52.203Z,14.90
2018-12-16T10:23:52.235Z,16.10
2018-12-16T10:24:52.520Z,15.70
2018-12-16T10:25:52.397Z,15.20
2018-12-16T10:26:52.298Z,16.40
2018-12-16T10:27:52.403Z,17.60
2018-12-16T10:28:52.342Z,16.10
2018-12-16T10:29:52.430Z,17.30
2018-12-16T10:30:52.399Z,14.60
2018-12-16T10:31:52.465Z,15.10
2018-12-16T10:32:52.487Z,16.20
2018-12-16T10:33:52.472Z,15.30
2018-12-16T10:34:52.582Z,14.80
2018-12-16T10:35:52.529Z,15.00
2018-12-16T10:36:52.660Z,14.20
2018-12-16T10:37:52.579Z,15.20
2018-12-16T10:38:52.603Z,15.10
2018-12-16T10:39:52.704Z,15.80
2018-12-16T10:40:52.654Z,15.20
2018-12-16T10:41:52.784Z,13.80
2018-12-16T10:42:52.695Z,14.50
2018-12-16T10:43:52.719Z,14.50
2018-12-16T10:44:52.852Z,13.80
2018-12-16T10:45:52.772Z,14.00
2018-12-16T10:46:52.909Z,13.20
2018-12-16T10:47:52.821Z,13.40
2018-12-16T10:48:52.838Z,12.50
2018-12-16T10:49:53.022Z,13.40
2018-12-16T10:50:52.897Z,13.50
2018-12-16T10:51:53.038Z,13.20
2018-12-16T10:52:52.961Z,13.80
2018-12-16T10:53:53.086Z,12.90
2018-12-16T10:54:58.377Z,12.80
2018-12-16T10:55:53.031Z,12.80
2018-12-16T10:56:53.066Z,13.60
2018-12-16T10:57:53.086Z,14.40
2018-12-16T10:58:53.108Z,13.20
2018-12-16T10:59:53.181Z,12.30
2018-12-16T11:00:53.230Z,11.60
2018-12-16T11:01:53.174Z,12.10
2018-12-16T11:02:53.324Z,13.30
2018-12-16T11:03:53.447Z,12.80
2018-12-16T11:04:53.377Z,12.40
2018-12-16T11:05:53.278Z,12.40
2018-12-16T11:06:53.315Z,12.80
2018-12-16T11:07:53.324Z,11.80
2018-12-16T11:08:53.532Z,12.50
2018-12-16T11:09:53.382Z,11.80
2018-12-16T11:10:53.413Z,12.90
2018-12-16T11:11:53.558Z,11.90
2018-12-16T11:12:53.458Z,11.90
2018-12-16T11:13:53.614Z,13.70
2018-12-16T11:14:53.641Z,12.40
2018-12-16T11:15:53.554Z,11.50
2018-12-16T11:16:53.750Z,12.70
2018-12-16T11:17:53.622Z,14.00
2018-12-16T11:18:53.631Z,11.60
2018-12-16T11:19:53.677Z,10.90
2018-12-16T11:20:53.714Z,11.10
2018-12-16T11:21:53.878Z,11.30
2018-12-16T11:22:53.737Z,10.50
2018-12-16T11:23:54.104Z,12.30
2018-12-16T11:24:53.815Z,12.60
2018-12-16T11:25:53.838Z,10.80
2018-12-16T11:26:53.969Z,11.60
2018-12-16T11:27:53.897Z,12.00
2018-12-16T11:28:54.008Z,12.80
2018-12-16T11:29:53.936Z,12.50
2018-12-16T11:30:53.955Z,12.30
2018-12-16T11:31:54.119Z,12.60
2018-12-16T11:32:54.245Z,10.90
2018-12-16T11:33:54.040Z,11.80
2018-12-16T11:34:54.099Z,11.50
2018-12-16T11:35:54.116Z,11.00
2018-12-16T11:36:54.141Z,11.40
2018-12-16T11:37:54.274Z,11.70
2018-12-16T11:38:54.197Z,10.30
2018-12-16T11:39:54.229Z,10.70
2018-12-16T11:40:54.248Z,10.80
2018-12-16T11:41:54.284Z,10.40
2018-12-16T11:42:54.579Z,10.10
2018-12-16T11:43:54.458Z,11.30
2018-12-16T11:44:54.488Z,12.20
2018-12-16T11:45:54.516Z,11.90
2018-12-16T11:46:54.424Z,10.20
2018-12-16T11:47:54.675Z,9.70
2018-12-16T11:48:54.488Z,10.20
2018-12-16T11:49:54.512Z,9.90
2018-12-16T11:50:54.539Z,9.50
2018-12-16T11:51:54.582Z,9.70
2018-12-16T11:52:54.748Z,10.30
2018-12-16T11:53:54.672Z,10.70
2018-12-16T11:54:54.719Z,10.60
2018-12-16T11:55:54.691Z,10.60
2018-12-16T11:56:54.724Z,10.90
2018-12-16T11:57:54.974Z,9.50
2018-12-16T11:58:54.901Z,9.60
2018-12-16T11:59:54.933Z,9.40
2018-12-16T12:00:54.960Z,8.80
2018-12-16T12:01:54.990Z,10.20
2018-12-16T12:02:54.996Z,9.90
2018-12-16T12:03:54.934Z,11.50
2018-12-16T12:04:55.081Z,10.90
2018-12-16T12:05:54.997Z,10.30
2018-12-16T12:06:55.021Z,10.70
2018-12-16T12:07:55.164Z,10.00
2018-12-16T12:08:55.093Z,9.90
2018-12-16T12:09:55.110Z,10.10
2018-12-16T12:10:55.167Z,11.70
2018-12-16T12:11:56.469Z,10.50
2018-12-16T12:12:55.313Z,10.40
2018-12-16T12:13:55.247Z,10.40
2018-12-16T12:14:55.281Z,10.00
2018-12-16T12:15:55.420Z,9.90
2018-12-16T12:16:55.331Z,9.30
2018-12-16T12:17:55.462Z,10.20
2018-12-16T12:18:55.400Z,9.60
2018-12-16T12:19:55.436Z,9.60
2018-12-16T12:20:55.459Z,10.10
2018-12-16T12:21:55.539Z,10.00
2018-12-16T12:22:55.690Z,10.20
2018-12-16T12:23:55.545Z,9.50
2018-12-16T12:24:55.569Z,10.80
2018-12-16T12:25:55.612Z,10.20
2018-12-16T12:26:55.643Z,10.40
2018-12-16T12:27:55.832Z,10.00
2018-12-16T12:28:55.827Z,10.90
2018-12-16T12:29:55.730Z,11.90
2018-12-16T12:30:55.762Z,11.40
2018-12-16T12:31:55.792Z,11.10
2018-12-16T12:32:56.003Z,9.90
2018-12-16T12:33:55.868Z,9.20
2018-12-16T12:34:55.904Z,8.80
2018-12-16T12:35:56.049Z,9.70
2018-12-16T12:36:55.970Z,10.00
2018-12-16T12:37:56.084Z,9.90
2018-12-16T12:38:56.032Z,10.40
2018-12-16T12:39:56.062Z,10.30
2018-12-16T12:40:56.092Z,10.20
2018-12-16T12:41:56.134Z,9.20
2018-12-16T12:42:56.160Z,10.20
2018-12-16T12:43:56.407Z,10.70
2018-12-16T12:44:56.224Z,10.70
2018-12-16T12:45:56.249Z,10.70
2018-12-16T12:46:56.291Z,10.40
2018-12-16T12:47:56.352Z,10.60
2018-12-16T12:48:56.471Z,9.50
2018-12-16T12:49:56.379Z,10.30
2018-12-16T12:50:56.417Z,10.00
2018-12-16T12:51:56.450Z,10.20
2018-12-16T12:52:56.535Z,10.50
2018-12-16T12:53:56.614Z,9.90
2018-12-16T12:54:56.662Z,9.70